No particular awareness of the weather is required.    There are no Weather-warnings


Meteo18 Weather Cam more information Meteo18 Weather Cam


Thunder radar more information blitzortung!


Rain radar more information rain snow radar


Visit our other weather sites:

Template documentation
and downloads

And another site



Weather Underground History page Text

Daily Summary for January 11, 2017 Units:  English    Metric   Both
« Previous Day
Next Day »
Daily Weekly Monthly Yearly Custom
  High: Low: Average:
Temperature: TemperatureC °F 3.4 °F 6 °F
Dew Point: DewpointC °F 3.0 °F 5.4 °F
Humidity: Humidity % 85 % 96 %
Wind Speed: WindSpeedKMH mph 0.0 mph 7.4 mph
Wind Gust: WindSpeedGustKMH mph - -
Wind:- - WSW
Pressure: PressurehPa in 1016.1 in -
Precipitation: 0.5 in    
Historical Graphs
 
 
Tabular Data for January 11, 2017
Time Temperature Dew Point Pressure Wind Wind Speed Wind Gust Humidity Rainfall Rate (Hourly)
TemperatureC °F DewpointC °F PressurehPa in Calm     Humidity % HourlyPrecipMM in
00:02 3.8 °F 3.4 °F 1017.5 in WNW 6.4 mph 6.4 mph 97 % 0.0 in
00:07 3.9 °F 3.5 °F 1017.5 in NW 3.2 mph 8.0 mph 97 % 0.0 in
00:12 3.9 °F 3.5 °F 1017.5 in WNW 4.8 mph 8.0 mph 97 % 0.0 in
00:17 3.9 °F 3.5 °F 1017.5 in WNW 1.6 mph 8.0 mph 97 % 0.0 in
00:22 4.0 °F 3.6 °F 1017.5 in WNW 3.2 mph 8.0 mph 97 % 0.0 in
00:32 4.0 °F 3.6 °F 1017.5 in WNW 4.8 mph 8.0 mph 97 % 0.0 in
00:42 4.1 °F 3.7 °F 1017.5 in WNW 4.8 mph 9.7 mph 97 % 0.0 in
00:47 4.1 °F 3.7 °F 1017.5 in WNW 8.0 mph 9.7 mph 97 % 0.0 in
00:52 4.1 °F 3.7 °F 1017.8 in WNW 4.8 mph 12.9 mph 97 % 0.0 in
00:57 4.1 °F 3.7 °F 1017.8 in WNW 4.8 mph 12.9 mph 97 % 0.0 in
01:02 4.1 °F 3.7 °F 1017.5 in NW 6.4 mph 12.9 mph 97 % 0.0 in
01:07 4.0 °F 3.4 °F 1017.2 in West 6.4 mph 12.9 mph 96 % 0.0 in
01:12 4.0 °F 3.4 °F 1017.5 in West 4.8 mph 12.9 mph 96 % 0.0 in
01:17 4.0 °F 3.6 °F 1017.2 in WNW 1.6 mph 12.9 mph 97 % 0.0 in
01:22 4.0 °F 3.6 °F 1017.5 in WNW 4.8 mph 12.9 mph 97 % 0.0 in
01:27 4.1 °F 3.7 °F 1017.2 in West 4.8 mph 12.9 mph 97 % 0.0 in
01:32 4.2 °F 3.8 °F 1017.5 in NW 4.8 mph 11.3 mph 97 % 0.0 in
01:37 4.2 °F 3.6 °F 1017.8 in West 6.4 mph 11.3 mph 96 % 0.0 in
01:42 4.2 °F 3.6 °F 1017.8 in West 1.6 mph 11.3 mph 96 % 0.0 in
01:47 4.2 °F 3.6 °F 1017.8 in Calm   9.7 mph 96 % 0.0 in
01:52 4.2 °F 3.6 °F 1017.8 in Calm   6.4 mph 96 % 0.0 in
01:57 3.9 °F 3.3 °F 1017.8 in Calm   6.4 mph 96 % 0.0 in
02:02 3.8 °F 3.2 °F 1017.8 in SE 1.6 mph 1.6 mph 96 % 0.0 in
02:07 3.8 °F 3.2 °F 1017.8 in Calm   1.6 mph 96 % 0.0 in
02:12 3.8 °F 3.2 °F 1017.8 in Calm   1.6 mph 96 % 0.0 in
02:17 3.9 °F 3.5 °F 1017.5 in Calm   1.6 mph 97 % 0.0 in
02:22 3.9 °F 3.5 °F 1017.8 in Calm   1.6 mph 97 % 0.0 in
02:27 3.9 °F 3.5 °F 1017.8 in WNW 3.2 mph 3.2 mph 97 % 0.0 in
02:32 3.9 °F 3.3 °F 1017.5 in WNW 1.6 mph 3.2 mph 96 % 0.0 in
02:37 3.9 °F 3.5 °F 1017.8 in WNW 1.6 mph 3.2 mph 97 % 0.0 in
02:42 4.0 °F 3.6 °F 1017.8 in WNW 1.6 mph 6.4 mph 97 % 0.0 in
02:47 4.1 °F 3.5 °F 1018.2 in WSW 3.2 mph 8.0 mph 96 % 0.0 in
02:52 4.1 °F 3.5 °F 1017.8 in WSW 1.6 mph 8.0 mph 96 % 0.0 in
02:57 4.2 °F 3.6 °F 1017.8 in West 3.2 mph 8.0 mph 96 % 0.0 in
03:02 4.2 °F 3.6 °F 1017.8 in Calm   8.0 mph 96 % 0.0 in
03:07 4.2 °F 3.6 °F 1017.8 in Calm   4.8 mph 96 % 0.0 in
03:12 4.2 °F 3.6 °F 1017.5 in WSW 3.2 mph 4.8 mph 96 % 0.0 in
03:17 4.2 °F 3.6 °F 1017.5 in SW 3.2 mph 3.2 mph 96 % 0.0 in
03:22 4.1 °F 3.4 °F 1017.5 in Calm   4.8 mph 95 % 0.0 in
03:27 3.8 °F 3.1 °F 1017.2 in Calm   4.8 mph 95 % 0.0 in
03:32 3.7 °F 3.0 °F 1017.5 in Calm   4.8 mph 95 % 0.0 in
03:37 3.6 °F 3.0 °F 1017.5 in Calm     96 % 0.0 in
03:42 3.6 °F 3.0 °F 1017.5 in Calm     96 % 0.0 in
03:47 3.6 °F 3.2 °F 1017.5 in SSW 1.6 mph 1.6 mph 97 % 0.0 in
03:52 3.7 °F 3.3 °F 1017.8 in SW 1.6 mph 3.2 mph 97 % 0.0 in
03:57 3.7 °F 3.3 °F 1017.8 in Calm   3.2 mph 97 % 0.0 in
04:02 3.8 °F 3.4 °F 1017.8 in WSW 3.2 mph 3.2 mph 97 % 0.0 in
04:07 3.9 °F 3.5 °F 1017.8 in SW 1.6 mph 4.8 mph 97 % 0.0 in
04:12 4.0 °F 3.6 °F 1017.8 in SW 1.6 mph 4.8 mph 97 % 0.0 in
04:17 4.1 °F 3.7 °F 1017.8 in SW 1.6 mph 6.4 mph 97 % 0.0 in
04:22 4.1 °F 3.7 °F 1017.5 in Calm   6.4 mph 97 % 0.0 in
04:27 4.0 °F 3.6 °F 1017.5 in Calm   6.4 mph 97 % 0.0 in
04:32 3.8 °F 3.2 °F 1017.2 in Calm   4.8 mph 96 % 0.0 in
04:37 3.7 °F 3.1 °F 1017.2 in SSE 3.2 mph 4.8 mph 96 % 0.0 in
04:42 3.6 °F 3.0 °F 1017.2 in SSW 3.2 mph 4.8 mph 96 % 0.0 in
04:47 3.6 °F 3.2 °F 1017.5 in SW 6.4 mph 6.4 mph 97 % 0.0 in
04:52 3.6 °F 3.2 °F 1017.8 in SW 4.8 mph 4.8 mph 97 % 0.0 in
04:57 3.6 °F 3.2 °F 1017.8 in SW 3.2 mph 9.7 mph 97 % 0.0 in
05:02 3.6 °F 3.2 °F 1017.8 in SW 4.8 mph 9.7 mph 97 % 0.0 in
05:07 3.7 °F 3.3 °F 1017.8 in West 6.4 mph 6.4 mph 97 % 0.0 in
05:12 3.7 °F 3.3 °F 1017.5 in WSW 3.2 mph 8.0 mph 97 % 0.0 in
05:17 3.7 °F 3.3 °F 1017.5 in West 3.2 mph 11.3 mph 97 % 0.0 in
05:22 3.7 °F 3.3 °F 1017.8 in WSW 3.2 mph 11.3 mph 97 % 0.0 in
05:27 3.7 °F 3.3 °F 1017.8 in WSW 3.2 mph 11.3 mph 97 % 0.0 in
05:32 3.7 °F 3.3 °F 1017.8 in SW 1.6 mph 11.3 mph 97 % 0.0 in
05:37 3.7 °F 3.3 °F 1017.5 in SW 4.8 mph 8.0 mph 97 % 0.0 in
05:42 3.7 °F 3.3 °F 1017.5 in West 8.0 mph 8.0 mph 97 % 0.0 in
05:47 3.6 °F 3.2 °F 1017.5 in WSW 8.0 mph 9.7 mph 97 % 0.0 in
05:52 3.6 °F 3.2 °F 1017.2 in WSW 8.0 mph 9.7 mph 97 % 0.0 in
05:57 3.6 °F 3.2 °F 1017.5 in West 6.4 mph 12.9 mph 97 % 0.0 in
06:02 3.6 °F 3.2 °F 1017.2 in WSW 6.4 mph 12.9 mph 97 % 0.0 in
06:07 3.6 °F 3.3 °F 1017.2 in WSW 4.8 mph 17.7 mph 98 % 0.0 in
06:12 3.6 °F 3.3 °F 1017.2 in WSW 6.4 mph 17.7 mph 98 % 0.0 in
06:17 3.6 °F 3.3 °F 1017.2 in SSW 4.8 mph 17.7 mph 98 % 0.0 in
06:22 3.5 °F 3.2 °F 1017.2 in SW 3.2 mph 17.7 mph 98 % 0.0 in
06:32 3.4 °F 3.1 °F 1017.2 in SW 4.8 mph 16.1 mph 98 % 0.0 in
06:37 3.4 °F 3.1 °F 1017.2 in SSW 6.4 mph 14.5 mph 98 % 0.0 in
06:42 3.4 °F 3.1 °F 1017.5 in SW 3.2 mph 14.5 mph 98 % 0.0 in
06:47 3.4 °F 3.1 °F 1017.2 in South 4.8 mph 14.5 mph 98 % 0.0 in
06:52 3.4 °F 3.1 °F 1017.5 in SW 8.0 mph 14.5 mph 98 % 0.0 in
06:57 3.4 °F 3.1 °F 1017.5 in SW 3.2 mph 11.3 mph 98 % 0.0 in
07:02 3.4 °F 3.1 °F 1017.5 in SW 4.8 mph 11.3 mph 98 % 0.0 in
07:12 3.4 °F 3.1 °F 1017.8 in SW 9.7 mph 12.9 mph 98 % 0.0 in
07:17 3.4 °F 3.1 °F 1017.8 in WSW 6.4 mph 12.9 mph 98 % 0.0 in
07:22 3.5 °F 3.2 °F 1017.8 in SW 4.8 mph 14.5 mph 98 % 0.0 in
07:27 3.5 °F 3.2 °F 1018.2 in SW 6.4 mph 14.5 mph 98 % 0.0 in
07:32 3.5 °F 3.2 °F 1018.2 in WSW 8.0 mph 14.5 mph 98 % 0.0 in
07:37 3.6 °F 3.3 °F 1018.2 in SSW 4.8 mph 14.5 mph 98 % 0.0 in
07:42 3.6 °F 3.3 °F 1017.8 in SW 6.4 mph 14.5 mph 98 % 0.0 in
07:47 3.6 °F 3.3 °F 1017.8 in SW 8.0 mph 14.5 mph 98 % 0.0 in
07:52 3.6 °F 3.3 °F 1017.8 in SSW 11.3 mph 14.5 mph 98 % 0.0 in
07:57 3.7 °F 3.4 °F 1017.8 in SW 6.4 mph 16.1 mph 98 % 0.0 in
08:02 3.7 °F 3.4 °F 1017.8 in WSW 8.0 mph 16.1 mph 98 % 0.0 in
08:07 3.7 °F 3.4 °F 1017.8 in SW 9.7 mph 14.5 mph 98 % 0.0 in
08:12 3.7 °F 3.4 °F 1017.8 in SW 8.0 mph 14.5 mph 98 % 0.0 in
08:17 3.8 °F 3.5 °F 1017.8 in SSW 4.8 mph 17.7 mph 98 % 0.0 in
08:22 3.8 °F 3.5 °F 1017.8 in SW 11.3 mph 17.7 mph 98 % 0.0 in
08:32 3.8 °F 3.5 °F 1017.8 in SW 11.3 mph 19.3 mph 98 % 0.0 in
08:37 3.9 °F 3.6 °F 1017.8 in SW 9.7 mph 17.7 mph 98 % 0.0 in
08:42 3.9 °F 3.6 °F 1017.8 in SW 9.7 mph 17.7 mph 98 % 0.0 in
08:47 3.9 °F 3.6 °F 1017.8 in SSW 4.8 mph 16.1 mph 98 % 0.0 in
08:52 4.0 °F 3.7 °F 1017.8 in SW 6.4 mph 16.1 mph 98 % 0.0 in
08:57 4.0 °F 3.7 °F 1017.8 in SW 3.2 mph 12.9 mph 98 % 0.0 in
09:02 4.1 °F 3.8 °F 1017.8 in South 9.7 mph 12.9 mph 98 % 0.0 in
09:07 4.2 °F 3.9 °F 1017.8 in SW 16.1 mph 16.1 mph 98 % 0.0 in
09:12 4.3 °F 4.0 °F 1017.8 in SSW 6.4 mph 14.5 mph 98 % 0.3 in
09:17 4.3 °F 4.0 °F 1017.8 in SSW 11.3 mph 17.7 mph 98 % 0.3 in
09:22 4.4 °F 4.1 °F 1017.8 in SSW 6.4 mph 17.7 mph 98 % 0.3 in
09:32 4.4 °F 4.1 °F 1017.8 in SW 11.3 mph 16.1 mph 98 % 0.3 in
09:37 4.4 °F 4.1 °F 1017.8 in South 9.7 mph 14.5 mph 98 % 0.3 in
09:42 4.4 °F 4.1 °F 1017.5 in South 8.0 mph 14.5 mph 98 % 0.3 in
09:47 4.5 °F 4.2 °F 1017.8 in SW 11.3 mph 14.5 mph 98 % 0.3 in
09:52 4.6 °F 4.3 °F 1017.8 in SSW 11.3 mph 14.5 mph 98 % 0.3 in
10:02 4.7 °F 4.4 °F 1017.8 in SW 6.4 mph 17.7 mph 98 % 0.3 in
10:07 4.7 °F 4.4 °F 1017.8 in SW 20.9 mph 20.9 mph 98 % 0.3 in
10:12 4.8 °F 4.5 °F 1017.8 in SSW 8.0 mph 20.9 mph 98 % 0.0 in
10:17 4.8 °F 4.5 °F 1017.8 in SSW 6.4 mph 20.9 mph 98 % 0.0 in
10:22 4.8 °F 4.5 °F 1017.8 in SSW 11.3 mph 20.9 mph 98 % 0.0 in
10:27 4.8 °F 4.5 °F 1017.8 in SW 11.3 mph 19.3 mph 98 % 0.0 in
10:32 4.8 °F 4.5 °F 1017.5 in SW 6.4 mph 17.7 mph 98 % 0.0 in
10:37 4.9 °F 4.6 °F 1017.5 in SW 12.9 mph 17.7 mph 98 % 0.0 in
10:42 5.1 °F 4.8 °F 1017.5 in SW 14.5 mph 24.1 mph 98 % 0.0 in
10:47 5.1 °F 4.8 °F 1017.8 in SW 17.7 mph 24.1 mph 98 % 0.0 in
10:52 5.2 °F 4.9 °F 1017.8 in SW 11.3 mph 24.1 mph 98 % 0.0 in
10:57 5.2 °F 4.9 °F 1017.8 in WSW 16.1 mph 24.1 mph 98 % 0.0 in
11:07 5.3 °F 5.0 °F 1017.8 in SW 9.7 mph 20.9 mph 98 % 0.0 in
11:12 5.3 °F 5.0 °F 1017.8 in WSW 11.3 mph 20.9 mph 98 % 0.0 in
11:22 5.4 °F 5.1 °F 1017.8 in SW 17.7 mph 20.9 mph 98 % 0.0 in
11:27 5.6 °F 5.3 °F 1017.8 in SW 20.9 mph 20.9 mph 98 % 0.0 in
11:32 5.7 °F 5.4 °F 1017.8 in NW 12.9 mph 22.5 mph 98 % 0.0 in
11:37 5.8 °F 5.5 °F 1017.8 in West 17.7 mph 24.1 mph 98 % 0.0 in
11:42 5.8 °F 5.7 °F 1017.8 in SW 20.9 mph 24.1 mph 99 % 0.0 in
11:47 5.9 °F 5.6 °F 1017.8 in West 17.7 mph 24.1 mph 98 % 0.0 in
11:52 5.9 °F 5.6 °F 1017.5 in SSW 14.5 mph 30.6 mph 98 % 0.0 in
11:57 6.0 °F 5.9 °F 1017.5 in WSW 17.7 mph 30.6 mph 99 % 0.3 in
12:02 6.0 °F 5.9 °F 1017.5 in SW 16.1 mph 25.7 mph 99 % 0.3 in
12:07 6.1 °F 5.8 °F 1017.2 in SW 9.7 mph 25.7 mph 98 % 0.3 in
12:12 6.1 °F 5.8 °F 1017.2 in WSW 8.0 mph 25.7 mph 98 % 0.3 in
12:17 6.2 °F 6.1 °F 1017.2 in WSW 9.7 mph 22.5 mph 99 % 0.3 in
12:22 6.3 °F 6.0 °F 1017.2 in SW 16.1 mph 22.5 mph 98 % 0.3 in
12:27 6.3 °F 6.2 °F 1017.2 in SW 6.4 mph 22.5 mph 99 % 0.3 in
12:32 6.4 °F 6.3 °F 1017.2 in WSW 9.7 mph 22.5 mph 99 % 0.3 in
12:37 6.4 °F 6.3 °F 1016.8 in SSW 9.7 mph 25.7 mph 99 % 0.3 in
12:42 6.5 °F 6.2 °F 1016.8 in WSW 20.9 mph 25.7 mph 98 % 0.3 in
12:47 6.5 °F 6.2 °F 1016.8 in SW 9.7 mph 27.4 mph 98 % 0.3 in
12:52 6.6 °F 6.3 °F 1016.8 in WSW 11.3 mph 27.4 mph 98 % 0.0 in
12:57 6.6 °F 6.3 °F 1016.8 in SW 14.5 mph 27.4 mph 98 % 0.0 in
13:02 6.7 °F 6.4 °F 1016.5 in WSW 20.9 mph 27.4 mph 98 % 0.0 in
13:07 6.7 °F 6.4 °F 1016.5 in SW 20.9 mph 30.6 mph 98 % 0.0 in
13:12 6.8 °F 6.5 °F 1016.5 in WSW 17.7 mph 30.6 mph 98 % 0.0 in
13:17 6.8 °F 6.5 °F 1016.5 in SW 17.7 mph 30.6 mph 98 % 0.0 in
13:22 6.8 °F 6.5 °F 1016.5 in SSW 12.9 mph 25.7 mph 98 % 0.0 in
13:27 6.8 °F 6.5 °F 1016.5 in SW 30.6 mph 30.6 mph 98 % 0.0 in
13:32 6.8 °F 6.5 °F 1016.5 in WSW 9.7 mph 30.6 mph 98 % 0.0 in
13:37 6.9 °F 6.6 °F 1016.5 in SW 8.0 mph 30.6 mph 98 % 0.0 in
13:42 6.9 °F 6.6 °F 1016.5 in SW 9.7 mph 30.6 mph 98 % 0.0 in
13:47 6.9 °F 6.6 °F 1016.5 in SW 8.0 mph 27.4 mph 98 % 0.0 in
13:52 7.0 °F 6.7 °F 1016.5 in SSW 11.3 mph 22.5 mph 98 % 0.0 in
13:57 7.0 °F 6.7 °F 1016.1 in SW 9.7 mph 22.5 mph 98 % 0.0 in
14:02 7.1 °F 6.8 °F 1016.1 in SW 9.7 mph 22.5 mph 98 % 0.0 in
14:12 7.1 °F 6.8 °F 1016.1 in WSW 9.7 mph 19.3 mph 98 % 0.0 in
14:17 7.2 °F 6.9 °F 1016.1 in WSW 6.4 mph 20.9 mph 98 % 0.0 in
14:22 7.2 °F 6.9 °F 1016.1 in West 8.0 mph 22.5 mph 98 % 0.0 in
14:27 7.3 °F 7.0 °F 1016.1 in West 9.7 mph 22.5 mph 98 % 0.0 in
14:32 7.3 °F 7.0 °F 1016.1 in WNW 12.9 mph 22.5 mph 98 % 0.0 in
14:37 7.3 °F 7.0 °F 1016.1 in West 14.5 mph 22.5 mph 98 % 0.0 in
14:42 7.4 °F 7.1 °F 1016.1 in SW 11.3 mph 25.7 mph 98 % 0.0 in
14:47 7.4 °F 7.1 °F 1016.1 in SW 9.7 mph 25.7 mph 98 % 0.0 in
14:57 7.5 °F 7.2 °F 1016.1 in SW 16.1 mph 24.1 mph 98 % 0.0 in
15:02 7.6 °F 7.3 °F 1016.1 in West 16.1 mph 24.1 mph 98 % 0.0 in
15:07 7.6 °F 7.3 °F 1016.1 in SW 3.2 mph 22.5 mph 98 % 0.0 in
15:12 7.7 °F 7.4 °F 1016.1 in SW 14.5 mph 22.5 mph 98 % 0.0 in
15:17 7.7 °F 7.4 °F 1016.1 in SW 11.3 mph 22.5 mph 98 % 0.0 in
15:22 7.7 °F 7.4 °F 1016.1 in WSW 9.7 mph 19.3 mph 98 % 0.0 in
15:32 7.8 °F 7.5 °F 1016.1 in SW 4.8 mph 19.3 mph 98 % 0.0 in
15:37 7.8 °F 7.5 °F 1016.1 in WSW 6.4 mph 19.3 mph 98 % 0.0 in
15:42 7.8 °F 7.5 °F 1016.1 in WSW 9.7 mph 19.3 mph 98 % 0.0 in
15:47 7.9 °F 7.6 °F 1016.5 in SW 12.9 mph 19.3 mph 98 % 0.0 in
15:52 7.9 °F 7.6 °F 1016.5 in WSW 9.7 mph 20.9 mph 98 % 0.0 in
15:57 7.9 °F 7.6 °F 1016.5 in SW 8.0 mph 20.9 mph 98 % 0.0 in
16:02 7.9 °F 7.6 °F 1016.5 in West 3.2 mph 19.3 mph 98 % 0.0 in
16:07 7.9 °F 7.6 °F 1016.5 in SW 6.4 mph 19.3 mph 98 % 0.0 in
16:12 8.0 °F 7.7 °F 1016.5 in SSW 11.3 mph 19.3 mph 98 % 0.0 in
16:17 8.0 °F 7.7 °F 1016.5 in WSW 8.0 mph 19.3 mph 98 % 0.0 in
16:22 8.0 °F 7.7 °F 1016.1 in WSW 6.4 mph 19.3 mph 98 % 0.0 in
16:27 8.1 °F 7.8 °F 1016.5 in SW 6.4 mph 17.7 mph 98 % 0.0 in
16:32 8.1 °F 7.8 °F 1016.5 in WSW 11.3 mph 19.3 mph 98 % 0.0 in
16:37 8.1 °F 7.8 °F 1016.5 in SW 6.4 mph 19.3 mph 98 % 0.0 in
16:42 8.1 °F 7.8 °F 1016.5 in SW 11.3 mph 19.3 mph 98 % 0.0 in
16:52 8.2 °F 7.9 °F 1016.5 in West 8.0 mph 19.3 mph 98 % 0.0 in
16:57 8.2 °F 7.9 °F 1016.8 in West 6.4 mph 20.9 mph 98 % 0.0 in
17:02 8.3 °F 7.9 °F 1016.8 in West 6.4 mph 20.9 mph 97 % 0.0 in
17:07 8.3 °F 7.9 °F 1017.2 in West 12.9 mph 20.9 mph 97 % 0.0 in
17:12 8.3 °F 7.9 °F 1017.2 in WSW 16.1 mph 17.7 mph 97 % 0.0 in
17:17 8.3 °F 7.9 °F 1017.2 in West 11.3 mph 17.7 mph 97 % 0.0 in
17:22 8.3 °F 7.9 °F 1017.2 in West 11.3 mph 19.3 mph 97 % 0.0 in
17:27 8.4 °F 8.0 °F 1017.2 in West 4.8 mph 19.3 mph 97 % 0.0 in
17:32 8.4 °F 8.0 °F 1017.2 in West 6.4 mph 17.7 mph 97 % 0.0 in
17:37 8.4 °F 8.0 °F 1017.2 in WSW 11.3 mph 17.7 mph 97 % 0.0 in
17:42 8.5 °F 7.9 °F 1017.2 in WSW 11.3 mph 17.7 mph 96 % 0.0 in
17:47 8.6 °F 8.0 °F 1017.2 in WSW 9.7 mph 16.1 mph 96 % 0.0 in
17:52 8.7 °F 7.9 °F 1017.2 in WSW 12.9 mph 19.3 mph 95 % 0.0 in
18:02 8.8 °F 7.9 °F 1017.5 in WSW 9.7 mph 19.3 mph 94 % 0.0 in
18:07 8.8 °F 7.9 °F 1017.5 in West 14.5 mph 17.7 mph 94 % 0.0 in
18:12 8.9 °F 8.0 °F 1017.8 in West 8.0 mph 17.7 mph 94 % 0.0 in
18:17 8.9 °F 8.0 °F 1017.8 in West 11.3 mph 17.7 mph 94 % 0.0 in
18:22 8.9 °F 8.0 °F 1017.8 in WSW 6.4 mph 16.1 mph 94 % 0.0 in
18:27 9.0 °F 7.9 °F 1017.8 in West 14.5 mph 17.7 mph 93 % 0.0 in
18:32 9.1 °F 8.0 °F 1017.8 in WSW 11.3 mph 17.7 mph 93 % 0.0 in
18:37 9.1 °F 8.0 °F 1017.8 in West 8.0 mph 20.9 mph 93 % 0.0 in
18:42 9.1 °F 8.0 °F 1017.8 in West 8.0 mph 20.9 mph 93 % 0.0 in
18:47 9.1 °F 7.9 °F 1017.8 in West 11.3 mph 19.3 mph 92 % 0.0 in
18:52 9.2 °F 8.0 °F 1017.8 in WSW 9.7 mph 16.1 mph 92 % 0.0 in
18:57 9.1 °F 7.9 °F 1017.8 in West 11.3 mph 16.1 mph 92 % 0.0 in
19:02 9.1 °F 7.9 °F 1017.8 in WSW 8.0 mph 16.1 mph 92 % 0.0 in
19:07 9.1 °F 7.9 °F 1018.2 in WSW 9.7 mph 19.3 mph 92 % 0.0 in
19:12 9.1 °F 7.9 °F 1018.2 in SW 6.4 mph 19.3 mph 92 % 0.0 in
19:17 8.9 °F 7.8 °F 1018.2 in SW 12.9 mph 19.3 mph 93 % 0.0 in
19:22 8.9 °F 7.8 °F 1018.2 in West 6.4 mph 14.5 mph 93 % 0.0 in
19:27 8.9 °F 7.8 °F 1018.2 in WSW 4.8 mph 14.5 mph 93 % 0.0 in
19:32 8.9 °F 7.8 °F 1018.2 in SW 4.8 mph 14.5 mph 93 % 0.0 in
19:37 8.8 °F 7.9 °F 1018.2 in WSW 1.6 mph 9.7 mph 94 % 0.0 in
19:42 8.8 °F 7.7 °F 1018.2 in WSW 4.8 mph 11.3 mph 93 % 0.0 in
19:47 8.8 °F 7.7 °F 1018.2 in SW 6.4 mph 12.9 mph 93 % 0.0 in
19:52 8.8 °F 7.7 °F 1018.2 in Calm   12.9 mph 93 % 0.0 in
19:57 8.7 °F 7.6 °F 1018.2 in WSW 4.8 mph 12.9 mph 93 % 0.0 in
20:02 8.7 °F 7.6 °F 1018.5 in SW 1.6 mph 12.9 mph 93 % 0.0 in
20:07 8.7 °F 7.8 °F 1018.5 in SW 4.8 mph 6.4 mph 94 % 0.0 in
20:12 8.7 °F 7.6 °F 1018.5 in SW 6.4 mph 9.7 mph 93 % 0.0 in
20:22 8.6 °F 7.5 °F 1018.8 in SW 4.8 mph 9.7 mph 93 % 0.0 in
20:32 8.5 °F 7.4 °F 1018.8 in SW 8.0 mph 9.7 mph 93 % 0.0 in
20:42 8.5 °F 7.4 °F 1019.2 in SW 4.8 mph 12.9 mph 93 % 0.0 in
20:47 8.5 °F 7.4 °F 1019.2 in WSW 4.8 mph 12.9 mph 93 % 0.0 in
20:52 8.4 °F 7.3 °F 1019.2 in WSW 4.8 mph 12.9 mph 93 % 0.0 in
20:57 8.4 °F 7.3 °F 1019.2 in SW 3.2 mph 9.7 mph 93 % 0.0 in
21:02 8.4 °F 7.2 °F 1019.2 in SW 4.8 mph 9.7 mph 92 % 0.0 in
21:12 8.5 °F 7.3 °F 1019.2 in WSW 4.8 mph 11.3 mph 92 % 0.0 in
21:17 8.5 °F 7.3 °F 1019.2 in West 4.8 mph 11.3 mph 92 % 0.0 in
21:27 8.4 °F 7.2 °F 1019.5 in WSW 4.8 mph 8.0 mph 92 % 0.0 in
21:32 8.4 °F 7.0 °F 1019.5 in West 3.2 mph 8.0 mph 91 % 0.0 in
21:42 8.4 °F 7.0 °F 1019.9 in West 1.6 mph 8.0 mph 91 % 0.0 in
21:52 8.7 °F 6.8 °F 1019.9 in West 1.6 mph 11.3 mph 88 % 0.0 in
21:57 8.7 °F 6.7 °F 1019.9 in WNW 1.6 mph 12.9 mph 87 % 0.0 in
22:02 8.7 °F 6.7 °F 1019.9 in WNW 1.6 mph 12.9 mph 87 % 0.0 in
22:07 8.6 °F 6.6 °F 1019.9 in West 3.2 mph 8.0 mph 87 % 0.0 in
22:12 8.6 °F 6.7 °F 1019.9 in WNW 1.6 mph 8.0 mph 88 % 0.0 in
22:17 8.5 °F 6.6 °F 1019.9 in WNW 4.8 mph 11.3 mph 88 % 0.0 in
22:22 8.5 °F 6.8 °F 1019.9 in West 4.8 mph 11.3 mph 89 % 0.0 in
22:27 8.5 °F 6.8 °F 1020.2 in WNW 8.0 mph 11.3 mph 89 % 0.0 in
22:32 8.5 °F 6.6 °F 1019.9 in WNW 4.8 mph 12.9 mph 88 % 0.0 in
22:37 8.5 °F 6.6 °F 1019.9 in WNW 9.7 mph 16.1 mph 88 % 0.0 in
22:42 8.4 °F 6.5 °F 1020.2 in West 11.3 mph 19.3 mph 88 % 0.0 in
22:47 8.4 °F 6.4 °F 1020.5 in WNW 9.7 mph 19.3 mph 87 % 0.0 in
22:52 8.4 °F 6.4 °F 1020.5 in WNW 11.3 mph 17.7 mph 87 % 0.0 in
23:02 8.4 °F 6.2 °F 1020.5 in WNW 8.0 mph 17.7 mph 86 % 0.0 in
23:12 8.2 °F 6.0 °F 1020.9 in WNW 4.8 mph 17.7 mph 86 % 0.0 in
23:17 8.1 °F 5.9 °F 1020.9 in WNW 8.0 mph 16.1 mph 86 % 0.0 in
23:22 8.1 °F 5.9 °F 1020.9 in West 4.8 mph 16.1 mph 86 % 0.0 in
23:27 8.1 °F 5.9 °F 1020.9 in WNW 17.7 mph 24.1 mph 86 % 0.0 in
23:32 8.0 °F 5.6 °F 1020.9 in West 14.5 mph 24.1 mph 85 % 0.0 in
23:37 8.0 °F 5.6 °F 1020.9 in West 3.2 mph 24.1 mph 85 % 0.0 in
23:42 7.9 °F 5.7 °F 1020.9 in WNW 4.8 mph 17.7 mph 86 % 0.0 in
23:47 7.9 °F 5.5 °F 1020.9 in West 1.6 mph 16.1 mph 85 % 0.0 in
23:52 7.8 °F 5.4 °F 1020.9 in WNW 3.2 mph 12.9 mph 85 % 0.0 in
23:57 7.8 °F 5.6 °F 1021.2 in West 1.6 mph 12.9 mph 86 % 0.0 in
Meteo18
Compliments of Weather Underground - 4 mb

Script developed by  Jim McMurry - jmcmurry@mwt.net Adapted for the template by  Wim van der Kuil - Leuven-Template.eu

You find our weather info also at:

European Weather Network

Weather Underground

Equipment we use:

Weather-station
Davis Vue

Weather-program
Meteobridge

Weather-server
Raspberry PI 2 B+

Provider
1 and 1

Davis Vue

Meteobridge

Raspberry PI 2 B+

1 and 1